createdAt,value
2018-08-09T00:01:23.513Z,23.90
2018-08-09T00:03:57.303Z,23.90
2018-08-09T00:06:31.872Z,23.70
2018-08-09T00:09:05.601Z,23.70
2018-08-09T00:11:39.397Z,23.70
2018-08-09T00:14:13.864Z,23.50
2018-08-09T00:16:47.735Z,23.40
2018-08-09T00:19:22.309Z,23.50
2018-08-09T00:21:56.178Z,23.40
2018-08-09T00:24:29.960Z,23.50
2018-08-09T00:27:03.755Z,23.50
2018-08-09T00:29:37.603Z,23.50
2018-08-09T00:32:11.390Z,23.50
2018-08-09T00:34:46.677Z,23.40
2018-08-09T00:37:21.351Z,23.40
2018-08-09T00:39:56.058Z,23.40
2018-08-09T00:42:29.835Z,23.40
2018-08-09T00:45:03.637Z,23.50
2018-08-09T00:47:37.519Z,23.50
2018-08-09T00:50:12.208Z,23.50
2018-08-09T00:52:46.052Z,23.60
2018-08-09T00:55:19.988Z,23.60
2018-08-09T00:57:54.545Z,23.60
2018-08-09T01:00:28.367Z,23.50
2018-08-09T01:03:02.039Z,23.60
2018-08-09T01:05:35.898Z,23.60
2018-08-09T01:08:09.677Z,23.50
2018-08-09T01:10:44.306Z,23.50
2018-08-09T01:13:18.137Z,23.40
2018-08-09T01:15:51.969Z,23.40
2018-08-09T01:18:25.746Z,23.40
2018-08-09T01:21:00.252Z,23.40
2018-08-09T01:23:34.050Z,23.40
2018-08-09T01:26:07.739Z,23.40
2018-08-09T01:28:41.501Z,23.40
2018-08-09T01:31:16.047Z,23.40
2018-08-09T01:33:49.815Z,23.40
2018-08-09T01:36:23.518Z,23.50
2018-08-09T01:38:58.087Z,23.40
2018-08-09T01:41:32.523Z,23.40
2018-08-09T01:44:06.427Z,23.40
2018-08-09T01:46:40.248Z,23.40
2018-08-09T01:49:14.758Z,23.30
2018-08-09T01:51:48.531Z,23.30
2018-08-09T01:54:22.308Z,23.30
2018-08-09T01:56:56.932Z,23.30
2018-08-09T01:59:30.891Z,23.30
2018-08-09T02:02:05.292Z,23.20
2018-08-09T02:04:39.219Z,23.10
2018-08-09T02:07:13.015Z,23.20
2018-08-09T02:09:46.892Z,23.20
2018-08-09T02:12:20.696Z,23.20
2018-08-09T02:14:54.486Z,23.20
2018-08-09T02:17:28.195Z,23.10
2018-08-09T02:20:02.897Z,22.90
2018-08-09T02:22:37.457Z,22.80
2018-08-09T02:25:12.050Z,22.80
2018-08-09T02:27:46.618Z,22.80
2018-08-09T02:30:20.513Z,22.80
2018-08-09T02:32:54.173Z,22.80
2018-08-09T02:35:27.960Z,22.80
2018-08-09T02:38:01.763Z,22.70
2018-08-09T02:40:36.393Z,22.60
2018-08-09T02:43:11.147Z,22.50
2018-08-09T02:45:45.535Z,22.40
2018-08-09T02:48:19.191Z,22.40
2018-08-09T02:50:53.753Z,22.40
2018-08-09T02:53:27.626Z,22.40
2018-08-09T02:56:01.435Z,22.40
2018-08-09T02:58:35.180Z,22.50
2018-08-09T03:01:09.041Z,22.50
2018-08-09T03:03:42.896Z,22.60
2018-08-09T03:06:16.722Z,22.50
2018-08-09T03:08:50.563Z,22.50
2018-08-09T03:11:24.372Z,22.50
2018-08-09T03:13:58.152Z,22.40
2018-08-09T03:16:32.712Z,22.40
2018-08-09T03:19:07.304Z,22.40
2018-08-09T03:21:41.892Z,22.40
2018-08-09T03:24:15.774Z,22.40
2018-08-09T03:26:49.627Z,22.40
2018-08-09T03:29:23.543Z,22.30
2018-08-09T03:31:57.350Z,22.30
2018-08-09T03:34:31.201Z,22.20
2018-08-09T03:37:05.743Z,22.10
2018-08-09T03:39:39.695Z,22.10
2018-08-09T03:42:13.601Z,22.10
2018-08-09T03:44:47.314Z,22.10
2018-08-09T03:47:21.167Z,22.20
2018-08-09T03:49:54.800Z,22.20
2018-08-09T03:52:28.536Z,22.20
2018-08-09T03:55:03.143Z,22.20
2018-08-09T03:57:36.948Z,22.20
2018-08-09T04:00:10.682Z,22.10
2018-08-09T04:02:45.240Z,21.90
2018-08-09T04:05:19.107Z,21.90
2018-08-09T04:07:53.877Z,21.80
2018-08-09T04:10:28.319Z,21.80
2018-08-09T04:13:02.192Z,21.80
2018-08-09T04:15:36.645Z,21.80
2018-08-09T04:18:10.492Z,21.70
2018-08-09T04:20:45.167Z,21.80
2018-08-09T04:23:19.032Z,21.90
2018-08-09T04:25:53.573Z,22.00
2018-08-09T04:28:27.465Z,22.00
2018-08-09T04:31:01.234Z,22.00
2018-08-09T04:33:35.112Z,22.00
2018-08-09T04:36:08.871Z,21.90
2018-08-09T04:38:42.658Z,21.90
2018-08-09T04:41:16.492Z,22.00
2018-08-09T04:43:50.296Z,22.00
2018-08-09T04:46:24.890Z,21.90
2018-08-09T04:48:58.761Z,21.90
2018-08-09T04:51:33.293Z,21.90
2018-08-09T04:54:08.013Z,21.90
2018-08-09T04:56:41.880Z,21.80
2018-08-09T04:59:16.884Z,21.80
2018-08-09T05:01:50.639Z,21.80
2018-08-09T05:04:24.440Z,21.90
2018-08-09T05:06:58.244Z,22.00
2018-08-09T05:09:32.545Z,21.90
2018-08-09T05:12:06.393Z,22.00
2018-08-09T05:14:40.174Z,22.00
2018-08-09T05:17:13.867Z,22.10
2018-08-09T05:19:49.232Z,22.30
2018-08-09T05:22:22.847Z,22.30
2018-08-09T05:24:56.723Z,22.30
2018-08-09T05:27:30.656Z,22.30
2018-08-09T05:30:04.548Z,22.30
2018-08-09T05:32:38.416Z,22.30
2018-08-09T05:35:12.278Z,22.40
2018-08-09T05:37:46.929Z,22.50
2018-08-09T05:40:20.821Z,22.40
2018-08-09T05:42:54.722Z,22.50
2018-08-09T05:45:28.410Z,22.50
2018-08-09T05:48:02.960Z,22.50
2018-08-09T05:50:36.713Z,22.50
2018-08-09T05:53:11.348Z,22.50
2018-08-09T05:55:45.165Z,22.50
2018-08-09T05:58:18.972Z,22.60
2018-08-09T06:00:53.535Z,22.80
2018-08-09T06:03:27.133Z,22.80
2018-08-09T06:06:00.983Z,22.90
2018-08-09T06:08:34.728Z,22.90
2018-08-09T06:11:08.508Z,23.00
2018-08-09T06:13:42.374Z,23.00
2018-08-09T06:16:16.200Z,23.20
2018-08-09T06:18:50.787Z,23.50
2018-08-09T06:21:24.494Z,23.50
2018-08-09T06:23:58.239Z,23.70
2018-08-09T06:26:32.006Z,23.80
2018-08-09T06:29:07.374Z,24.00
2018-08-09T06:31:41.211Z,24.00
2018-08-09T06:34:15.825Z,24.00
2018-08-09T06:36:49.492Z,24.00
2018-08-09T06:39:23.125Z,24.00
2018-08-09T06:41:56.920Z,24.10
2018-08-09T06:44:30.669Z,24.20
2018-08-09T06:47:04.529Z,24.30
2018-08-09T06:49:38.921Z,24.40
2018-08-09T06:52:12.698Z,24.40
2018-08-09T06:54:46.534Z,24.50
2018-08-09T06:57:21.179Z,24.60
2018-08-09T06:59:55.027Z,24.50
2018-08-09T07:02:28.804Z,24.40
2018-08-09T07:05:02.541Z,24.30
2018-08-09T07:07:37.080Z,24.40
2018-08-09T07:10:11.629Z,24.50
2018-08-09T07:12:46.158Z,24.70
2018-08-09T07:15:20.668Z,24.90
2018-08-09T07:17:55.193Z,25.00
2018-08-09T07:20:28.925Z,25.00
2018-08-09T07:23:02.704Z,25.10
2018-08-09T07:25:37.143Z,25.30
2018-08-09T07:28:11.730Z,25.50
2018-08-09T07:30:45.585Z,25.50
2018-08-09T07:33:20.162Z,25.90
2018-08-09T07:35:54.782Z,25.80
2018-08-09T07:38:28.521Z,25.70
2018-08-09T07:41:02.410Z,25.80
2018-08-09T07:43:36.218Z,25.90
2018-08-09T07:46:09.975Z,26.10
2018-08-09T07:48:43.817Z,26.40
2018-08-09T07:51:17.563Z,26.50
2018-08-09T07:53:51.324Z,26.60
2018-08-09T07:56:25.098Z,26.80
2018-08-09T07:58:58.893Z,26.90
2018-08-09T08:01:32.667Z,26.80
2018-08-09T08:04:06.495Z,26.90
2018-08-09T08:06:40.273Z,26.90
2018-08-09T08:09:13.988Z,26.90
2018-08-09T08:11:48.419Z,27.30
2018-08-09T08:14:22.272Z,27.20
2018-08-09T08:16:56.179Z,27.40
2018-08-09T08:19:30.036Z,27.50
2018-08-09T08:22:04.660Z,28.90
2018-08-09T08:24:38.307Z,28.90
2018-08-09T08:27:12.160Z,29.40
2018-08-09T08:29:45.867Z,30.00
2018-08-09T08:32:19.592Z,30.60
2018-08-09T08:34:53.396Z,31.10
2018-08-09T08:37:27.273Z,31.40
2018-08-09T08:40:00.996Z,32.00
2018-08-09T08:42:34.721Z,33.10
2018-08-09T08:45:08.435Z,33.00
2018-08-09T08:47:42.139Z,33.00
2018-08-09T08:50:15.798Z,33.40
2018-08-09T08:52:50.195Z,32.50
2018-08-09T08:55:23.990Z,32.50
2018-08-09T08:57:57.827Z,32.60
2018-08-09T09:00:32.460Z,33.80
2018-08-09T09:03:06.946Z,34.80
2018-08-09T09:05:40.760Z,34.70
2018-08-09T09:08:14.504Z,34.80
2018-08-09T09:10:49.123Z,34.20
2018-08-09T09:13:22.764Z,34.10
2018-08-09T09:15:56.593Z,33.90
2018-08-09T09:18:30.347Z,35.00
2018-08-09T09:21:04.972Z,35.00
2018-08-09T09:23:38.752Z,35.00
2018-08-09T09:26:12.512Z,34.60
2018-08-09T09:28:46.396Z,34.70
2018-08-09T09:31:21.587Z,34.10
2018-08-09T09:33:55.324Z,34.10
2018-08-09T09:36:29.024Z,34.00
2018-08-09T09:39:02.877Z,34.50
2018-08-09T09:41:36.605Z,34.60
2018-08-09T09:44:10.367Z,34.60
2018-08-09T09:46:44.133Z,34.20
2018-08-09T09:49:17.923Z,34.80
2018-08-09T09:51:52.472Z,35.60
2018-08-09T09:54:26.161Z,35.50
2018-08-09T09:56:59.998Z,35.50
2018-08-09T09:59:33.757Z,34.70
2018-08-09T10:02:07.498Z,34.60
2018-08-09T10:04:41.995Z,34.30
2018-08-09T10:07:15.835Z,34.30
2018-08-09T10:09:49.462Z,33.90
2018-08-09T10:12:23.248Z,34.30
2018-08-09T10:14:57.061Z,34.60
2018-08-09T10:17:30.850Z,34.20
2018-08-09T10:20:04.700Z,34.30
2018-08-09T10:22:38.427Z,34.80
2018-08-09T10:25:12.288Z,35.00
2018-08-09T10:27:46.055Z,34.20
2018-08-09T10:30:19.896Z,34.30
2018-08-09T10:32:53.791Z,34.50
2018-08-09T10:35:27.688Z,34.50
2018-08-09T10:38:01.379Z,34.60
2018-08-09T10:40:35.281Z,34.80
2018-08-09T10:43:09.723Z,34.70
2018-08-09T10:45:43.825Z,34.70
2018-08-09T10:48:17.527Z,35.30
2018-08-09T10:50:52.255Z,34.90
2018-08-09T10:53:26.025Z,34.90
2018-08-09T10:56:00.571Z,34.80
2018-08-09T10:58:35.141Z,34.90
2018-08-09T11:01:08.927Z,34.90
2018-08-09T11:03:42.577Z,35.30
2018-08-09T11:06:16.474Z,35.30
2018-08-09T11:08:51.067Z,34.90
2018-08-09T11:11:25.579Z,34.80
2018-08-09T11:13:59.304Z,34.70
2018-08-09T11:16:33.050Z,34.90
2018-08-09T11:19:06.906Z,35.60
2018-08-09T11:21:40.778Z,35.40
2018-08-09T11:24:14.583Z,35.30
2018-08-09T11:26:49.151Z,34.40
2018-08-09T11:29:29.110Z,34.40
2018-08-09T11:32:03.282Z,34.70
2018-08-09T11:34:37.706Z,34.90
2018-08-09T11:37:11.538Z,34.90
2018-08-09T11:39:45.380Z,34.90
2018-08-09T11:42:19.882Z,34.20
2018-08-09T11:44:53.639Z,34.20
2018-08-09T11:47:27.449Z,34.60
2018-08-09T11:50:01.228Z,34.70
2018-08-09T11:52:35.704Z,34.80
2018-08-09T11:55:09.399Z,34.90
2018-08-09T11:57:44.031Z,34.50
2018-08-09T12:00:18.544Z,34.60
2018-08-09T12:02:53.317Z,34.60
2018-08-09T12:05:27.480Z,34.60
2018-08-09T12:08:02.013Z,33.80
2018-08-09T12:10:35.777Z,33.80
2018-08-09T12:13:09.551Z,34.20
2018-08-09T12:15:43.250Z,34.50
2018-08-09T12:18:17.861Z,34.50
2018-08-09T12:20:51.540Z,34.50
2018-08-09T12:23:25.324Z,34.80
2018-08-09T12:25:59.313Z,34.80
2018-08-09T12:28:33.395Z,35.10
2018-08-09T12:31:07.968Z,34.00
2018-08-09T12:33:41.855Z,34.00
2018-08-09T12:36:16.366Z,34.30
2018-08-09T12:38:50.970Z,34.30
2018-08-09T12:41:24.953Z,34.30
2018-08-09T12:43:58.586Z,34.50
2018-08-09T12:46:32.183Z,34.70
2018-08-09T12:49:06.024Z,34.90
2018-08-09T12:51:39.760Z,35.10
2018-08-09T12:54:13.558Z,34.90
2018-08-09T12:56:48.041Z,35.10
2018-08-09T12:59:21.755Z,35.10
2018-08-09T13:01:55.571Z,34.60
2018-08-09T13:04:34.850Z,35.00
2018-08-09T13:07:08.875Z,35.00
2018-08-09T13:09:42.667Z,35.00
2018-08-09T13:12:16.603Z,35.00
2018-08-09T13:14:50.416Z,35.20
2018-08-09T13:17:24.255Z,35.20
2018-08-09T13:19:58.408Z,35.50
2018-08-09T13:22:32.216Z,35.50
2018-08-09T13:25:06.062Z,35.30
2018-08-09T13:27:39.863Z,35.00
2018-08-09T13:30:14.361Z,34.90
2018-08-09T13:32:48.080Z,34.90
2018-08-09T13:35:22.599Z,31.10
2018-08-09T13:37:56.374Z,31.00
2018-08-09T13:40:30.813Z,29.30
2018-08-09T13:43:05.380Z,29.30
2018-08-09T13:45:40.072Z,28.70
2018-08-09T13:48:13.991Z,28.20
2018-08-09T13:50:47.832Z,27.80
2018-08-09T13:53:21.551Z,28.00
2018-08-09T13:55:55.633Z,27.40
2018-08-09T13:58:30.323Z,26.90
2018-08-09T14:01:04.043Z,26.80
2018-08-09T14:03:37.676Z,26.60
2018-08-09T14:06:16.236Z,26.70
2018-08-09T14:08:50.141Z,26.60
2018-08-09T14:11:23.810Z,26.60
2018-08-09T14:13:58.436Z,27.30
2018-08-09T14:16:32.352Z,27.30
2018-08-09T14:19:06.307Z,27.50
2018-08-09T14:21:40.792Z,27.30
2018-08-09T14:24:14.506Z,27.30
2018-08-09T14:26:49.155Z,27.10
2018-08-09T14:29:23.023Z,27.10
2018-08-09T14:31:56.835Z,27.30
2018-08-09T14:34:31.364Z,27.60
2018-08-09T14:37:05.332Z,27.60
2018-08-09T14:39:39.191Z,27.80
2018-08-09T14:42:13.069Z,27.70
2018-08-09T14:44:46.859Z,27.50
2018-08-09T14:47:21.427Z,27.40
2018-08-09T14:49:56.002Z,27.60
2018-08-09T14:52:29.675Z,27.60
2018-08-09T14:55:03.497Z,27.70
2018-08-09T14:57:37.389Z,27.80
2018-08-09T15:00:11.141Z,27.90
2018-08-09T15:02:45.003Z,27.80
2018-08-09T15:05:18.702Z,27.90
2018-08-09T15:07:52.548Z,27.90
2018-08-09T15:10:26.212Z,27.70
2018-08-09T15:12:59.996Z,27.80
2018-08-09T15:15:33.797Z,27.90
2018-08-09T15:18:07.644Z,27.90
2018-08-09T15:20:41.392Z,27.90
2018-08-09T15:23:15.300Z,27.90
2018-08-09T15:25:49.206Z,27.60
2018-08-09T15:28:23.804Z,27.20
2018-08-09T15:30:58.437Z,27.20
2018-08-09T15:33:32.611Z,27.20
2018-08-09T15:36:06.404Z,27.00
2018-08-09T15:38:40.310Z,27.10
2018-08-09T15:41:14.316Z,27.30
2018-08-09T15:43:49.624Z,27.20
2018-08-09T15:46:23.535Z,27.20
2018-08-09T15:48:57.259Z,27.10
2018-08-09T15:51:31.812Z,27.30
2018-08-09T15:54:05.587Z,27.30
2018-08-09T15:56:39.359Z,27.40
2018-08-09T15:59:13.109Z,27.50
2018-08-09T16:01:46.952Z,27.70
2018-08-09T16:04:20.791Z,27.80
2018-08-09T16:06:54.670Z,27.80
2018-08-09T16:09:29.159Z,27.90
2018-08-09T16:12:08.756Z,27.90
2018-08-09T16:14:43.639Z,27.80
2018-08-09T16:17:18.082Z,27.90
2018-08-09T16:19:51.897Z,27.90
2018-08-09T16:22:25.618Z,27.70
2018-08-09T16:24:59.400Z,27.60
2018-08-09T16:27:33.187Z,27.30
2018-08-09T16:30:07.004Z,27.30
2018-08-09T16:32:41.629Z,27.40
2018-08-09T16:35:15.371Z,27.40
2018-08-09T16:37:49.132Z,27.20
2018-08-09T16:40:23.772Z,27.30
2018-08-09T16:42:57.512Z,27.30
2018-08-09T16:45:32.164Z,27.10
2018-08-09T16:48:06.795Z,27.00
2018-08-09T16:50:40.656Z,27.00
2018-08-09T16:53:14.437Z,27.10
2018-08-09T16:55:49.105Z,27.20
2018-08-09T16:58:23.067Z,27.20
2018-08-09T17:00:57.672Z,27.40
2018-08-09T17:03:31.808Z,27.30
2018-08-09T17:06:05.448Z,27.30
2018-08-09T17:08:39.202Z,27.50
2018-08-09T17:11:13.060Z,27.40
2018-08-09T17:13:46.994Z,27.40
2018-08-09T17:16:21.592Z,27.50
2018-08-09T17:18:55.431Z,27.40
2018-08-09T17:21:29.266Z,27.40
2018-08-09T17:24:03.011Z,27.40
2018-08-09T17:26:36.875Z,27.20
2018-08-09T17:29:10.748Z,27.20
2018-08-09T17:31:52.111Z,27.10
2018-08-09T17:34:26.055Z,27.00
2018-08-09T17:37:01.456Z,26.60
2018-08-09T17:39:35.216Z,26.60
2018-08-09T17:42:09.013Z,26.40
2018-08-09T17:44:42.830Z,26.20
2018-08-09T17:47:16.677Z,26.20
2018-08-09T17:49:51.278Z,25.60
2018-08-09T17:52:25.764Z,25.30
2018-08-09T17:54:59.536Z,25.20
2018-08-09T17:57:33.387Z,25.00
2018-08-09T18:00:07.236Z,24.90
2018-08-09T18:02:41.848Z,24.40
2018-08-09T18:05:15.607Z,24.40
2018-08-09T18:07:49.651Z,24.30
2018-08-09T18:10:23.347Z,24.20
2018-08-09T18:12:57.151Z,24.20
2018-08-09T18:15:31.648Z,24.20
2018-08-09T18:18:06.292Z,24.10
2018-08-09T18:20:40.060Z,24.10
2018-08-09T18:23:14.631Z,24.00
2018-08-09T18:25:48.477Z,24.00
2018-08-09T18:28:22.938Z,24.00
2018-08-09T18:30:56.819Z,23.90
2018-08-09T18:33:30.507Z,23.80
2018-08-09T18:36:04.471Z,23.70
2018-08-09T18:38:38.217Z,23.70
2018-08-09T18:41:12.174Z,23.60
2018-08-09T18:43:46.728Z,23.60
2018-08-09T18:46:20.606Z,23.50
2018-08-09T18:48:55.506Z,23.60
2018-08-09T18:51:29.979Z,23.70
2018-08-09T18:54:03.637Z,23.70
2018-08-09T18:56:37.374Z,23.70
2018-08-09T18:59:11.359Z,23.80
2018-08-09T19:01:45.951Z,23.80
2018-08-09T19:04:19.735Z,23.70
2018-08-09T19:07:00.945Z,23.80
2018-08-09T19:09:34.780Z,23.70
2018-08-09T19:12:09.452Z,23.70
2018-08-09T19:14:48.306Z,23.70
2018-08-09T19:17:23.098Z,23.70
2018-08-09T19:19:56.946Z,23.60
2018-08-09T19:22:30.718Z,23.70
2018-08-09T19:25:04.487Z,23.70
2018-08-09T19:27:38.311Z,23.70
2018-08-09T19:30:12.113Z,23.70
2018-08-09T19:32:45.944Z,23.70
2018-08-09T19:35:19.920Z,23.80
2018-08-09T19:37:53.910Z,23.80
2018-08-09T19:40:27.799Z,23.80
2018-08-09T19:43:01.642Z,23.80
2018-08-09T19:45:36.152Z,23.60
2018-08-09T19:48:10.835Z,23.50
2018-08-09T19:50:44.656Z,23.40
2018-08-09T19:53:18.453Z,23.40
2018-08-09T19:55:53.075Z,23.30
2018-08-09T19:58:26.899Z,23.30
2018-08-09T20:01:07.693Z,23.40
2018-08-09T20:03:42.677Z,23.40
2018-08-09T20:06:16.513Z,23.40
2018-08-09T20:08:50.976Z,23.50
2018-08-09T20:11:24.776Z,23.50
2018-08-09T20:13:58.481Z,23.50
2018-08-09T20:16:32.311Z,23.50
2018-08-09T20:19:06.146Z,23.50
2018-08-09T20:21:39.949Z,23.40
2018-08-09T20:24:13.672Z,23.50
2018-08-09T20:26:47.448Z,23.40
2018-08-09T20:29:21.343Z,23.50
2018-08-09T20:31:58.414Z,23.40
2018-08-09T20:34:32.848Z,23.40
2018-08-09T20:37:06.656Z,23.50
2018-08-09T20:39:41.281Z,23.40
2018-08-09T20:42:15.904Z,23.30
2018-08-09T20:44:49.676Z,23.30
2018-08-09T20:47:23.464Z,23.30
2018-08-09T20:49:58.000Z,23.30
2018-08-09T20:52:31.882Z,23.20
2018-08-09T20:55:05.519Z,23.20
2018-08-09T20:57:39.542Z,23.20
2018-08-09T21:00:13.436Z,23.20
2018-08-09T21:02:47.176Z,23.30
2018-08-09T21:05:20.852Z,23.20
2018-08-09T21:07:54.744Z,23.10
2018-08-09T21:10:28.674Z,23.00
2018-08-09T21:13:02.480Z,23.00
2018-08-09T21:15:36.543Z,23.00
2018-08-09T21:18:11.131Z,23.00
2018-08-09T21:20:44.935Z,23.00
2018-08-09T21:23:19.603Z,23.10
2018-08-09T21:25:53.385Z,23.00
2018-08-09T21:28:27.235Z,23.00
2018-08-09T21:31:01.060Z,22.90
2018-08-09T21:33:34.886Z,22.80
2018-08-09T21:36:08.701Z,22.80
2018-08-09T21:38:43.542Z,22.90
2018-08-09T21:41:18.111Z,22.90
2018-08-09T21:43:52.675Z,23.00
2018-08-09T21:46:27.258Z,23.00
2018-08-09T21:49:01.011Z,23.00
2018-08-09T21:51:34.825Z,23.00
2018-08-09T21:54:15.069Z,22.90
2018-08-09T21:56:49.136Z,23.00
2018-08-09T21:59:23.101Z,23.00
2018-08-09T22:01:57.127Z,23.00
2018-08-09T22:04:30.863Z,23.00
2018-08-09T22:07:11.168Z,22.90
2018-08-09T22:12:58.212Z,22.90
2018-08-09T22:15:51.263Z,23.00
2018-08-09T22:18:45.173Z,23.00
2018-08-09T22:21:25.515Z,23.00
2018-08-09T22:24:00.115Z,22.90
2018-08-09T22:26:34.562Z,22.90
2018-08-09T22:29:13.493Z,22.90
2018-08-09T22:31:48.942Z,22.90
2018-08-09T22:34:24.770Z,22.90
2018-08-09T22:36:58.581Z,22.90
2018-08-09T22:39:32.341Z,22.90
2018-08-09T22:42:06.268Z,22.80
2018-08-09T22:44:41.176Z,22.70
2018-08-09T22:47:20.616Z,22.60
2018-08-09T22:49:54.746Z,22.70
2018-08-09T22:55:25.237Z,22.60
2018-08-09T22:57:59.778Z,22.70
2018-08-09T23:00:34.762Z,22.70
2018-08-09T23:03:08.670Z,22.70
2018-08-09T23:05:42.497Z,22.70
2018-08-09T23:08:16.336Z,22.70
2018-08-09T23:10:50.048Z,22.60
2018-08-09T23:13:23.960Z,22.60
2018-08-09T23:15:58.519Z,22.60
2018-08-09T23:18:32.350Z,22.60
2018-08-09T23:21:06.240Z,22.60
2018-08-09T23:23:39.895Z,22.60
2018-08-09T23:26:13.713Z,22.50
2018-08-09T23:28:47.491Z,22.60
2018-08-09T23:31:21.368Z,22.50
2018-08-09T23:33:55.959Z,22.20
2018-08-09T23:36:29.742Z,22.10
2018-08-09T23:39:04.405Z,21.90
2018-08-09T23:41:38.387Z,21.90
2018-08-09T23:44:12.199Z,21.70
2018-08-09T23:46:45.950Z,21.60
2018-08-09T23:49:19.822Z,21.60
2018-08-09T23:51:54.369Z,21.60
2018-08-09T23:54:29.233Z,21.60
2018-08-09T23:57:03.803Z,21.50
2018-08-09T23:59:37.643Z,21.50
